sensor_id;sensor_type;location;lat;lon;timestamp;temperature;humidity
52439;DHT22;73188;52.948;6.012;2024-01-30T00:09:50;11.20;99.90
52439;DHT22;73188;52.948;6.012;2024-01-30T00:20:16;11.30;99.90
52439;DHT22;73188;52.948;6.012;2024-01-30T00:30:41;11.40;99.90
52439;DHT22;73188;52.948;6.012;2024-01-30T00:41:10;11.30;99.90
52439;DHT22;73188;52.948;6.012;2024-01-30T00:51:36;11.30;99.90
52439;DHT22;73188;52.948;6.012;2024-01-30T01:02:02;11.40;99.90
52439;DHT22;73188;52.948;6.012;2024-01-30T01:12:28;11.30;99.90
52439;DHT22;73188;52.948;6.012;2024-01-30T01:22:54;11.40;99.90
52439;DHT22;73188;52.948;6.012;2024-01-30T01:33:20;11.30;99.90
52439;DHT22;73188;52.948;6.012;2024-01-30T01:43:46;11.40;99.90
52439;DHT22;73188;52.948;6.012;2024-01-30T01:54:12;11.90;99.90
52439;DHT22;73188;52.948;6.012;2024-01-30T02:04:38;11.80;99.90
52439;DHT22;73188;52.948;6.012;2024-01-30T02:15:05;11.70;99.90
52439;DHT22;73188;52.948;6.012;2024-01-30T02:25:39;11.60;99.90
52439;DHT22;73188;52.948;6.012;2024-01-30T02:36:12;11.70;99.90
52439;DHT22;73188;52.948;6.012;2024-01-30T02:46:38;11.60;99.90
52439;DHT22;73188;52.948;6.012;2024-01-30T02:57:04;11.60;99.90
52439;DHT22;73188;52.948;6.012;2024-01-30T03:07:30;11.90;99.90
52439;DHT22;73188;52.948;6.012;2024-01-30T03:17:56;12.20;99.90
52439;DHT22;73188;52.948;6.012;2024-01-30T03:28:22;12.60;99.90
52439;DHT22;73188;52.948;6.012;2024-01-30T03:38:47;12.70;99.90
52439;DHT22;73188;52.948;6.012;2024-01-30T03:49:13;12.90;99.90
52439;DHT22;73188;52.948;6.012;2024-01-30T03:59:42;12.70;99.90
52439;DHT22;73188;52.948;6.012;2024-01-30T04:10:09;12.60;99.90
52439;DHT22;73188;52.948;6.012;2024-01-30T04:20:35;12.70;99.90
52439;DHT22;73188;52.948;6.012;2024-01-30T04:31:01;12.90;99.90
52439;DHT22;73188;52.948;6.012;2024-01-30T04:41:27;12.90;99.90
52439;DHT22;73188;52.948;6.012;2024-01-30T04:51:57;13.00;99.90
52439;DHT22;73188;52.948;6.012;2024-01-30T05:02:23;13.00;99.90
52439;DHT22;73188;52.948;6.012;2024-01-30T05:12:49;13.10;99.90
52439;DHT22;73188;52.948;6.012;2024-01-30T05:23:14;13.00;99.90
52439;DHT22;73188;52.948;6.012;2024-01-30T05:33:41;12.90;99.90
52439;DHT22;73188;52.948;6.012;2024-01-30T05:44:07;12.80;99.90
52439;DHT22;73188;52.948;6.012;2024-01-30T05:54:33;12.80;99.90
52439;DHT22;73188;52.948;6.012;2024-01-30T06:04:59;12.80;99.90
52439;DHT22;73188;52.948;6.012;2024-01-30T06:15:25;13.00;99.90
52439;DHT22;73188;52.948;6.012;2024-01-30T06:25:51;13.00;99.90
52439;DHT22;73188;52.948;6.012;2024-01-30T06:36:17;13.00;99.90
52439;DHT22;73188;52.948;6.012;2024-01-30T06:46:43;13.00;99.90
52439;DHT22;73188;52.948;6.012;2024-01-30T06:57:09;13.00;99.90
52439;DHT22;73188;52.948;6.012;2024-01-30T07:07:37;13.10;99.90
52439;DHT22;73188;52.948;6.012;2024-01-30T07:18:04;13.00;99.90
52439;DHT22;73188;52.948;6.012;2024-01-30T07:28:33;13.00;99.90
52439;DHT22;73188;52.948;6.012;2024-01-30T07:38:59;13.10;99.90
52439;DHT22;73188;52.948;6.012;2024-01-30T07:49:25;13.00;99.90
52439;DHT22;73188;52.948;6.012;2024-01-30T07:59:51;13.00;99.90
52439;DHT22;73188;52.948;6.012;2024-01-30T08:10:17;12.90;99.90
52439;DHT22;73188;52.948;6.012;2024-01-30T08:20:46;13.00;99.90
52439;DHT22;73188;52.948;6.012;2024-01-30T08:31:12;13.10;99.90
52439;DHT22;73188;52.948;6.012;2024-01-30T08:41:37;13.30;99.90
52439;DHT22;73188;52.948;6.012;2024-01-30T08:52:03;13.30;99.90
52439;DHT22;73188;52.948;6.012;2024-01-30T09:02:29;13.50;99.90
52439;DHT22;73188;52.948;6.012;2024-01-30T09:12:55;13.80;99.90
52439;DHT22;73188;52.948;6.012;2024-01-30T09:23:21;13.90;99.90
52439;DHT22;73188;52.948;6.012;2024-01-30T09:33:47;14.00;99.90
52439;DHT22;73188;52.948;6.012;2024-01-30T09:44:16;14.00;99.90
52439;DHT22;73188;52.948;6.012;2024-01-30T09:54:43;14.40;99.90
52439;DHT22;73188;52.948;6.012;2024-01-30T10:05:11;14.30;99.90
52439;DHT22;73188;52.948;6.012;2024-01-30T10:15:41;14.40;99.90
52439;DHT22;73188;52.948;6.012;2024-01-30T10:26:07;14.30;99.90
52439;DHT22;73188;52.948;6.012;2024-01-30T10:36:41;14.40;99.90
52439;DHT22;73188;52.948;6.012;2024-01-30T10:47:11;14.80;99.90
52439;DHT22;73188;52.948;6.012;2024-01-30T10:57:40;14.70;99.90
52439;DHT22;73188;52.948;6.012;2024-01-30T11:08:13;14.50;99.90
52439;DHT22;73188;52.948;6.012;2024-01-30T11:18:39;14.20;99.90
52439;DHT22;73188;52.948;6.012;2024-01-30T11:29:07;13.80;99.90
52439;DHT22;73188;52.948;6.012;2024-01-30T11:39:36;13.60;99.90
52439;DHT22;73188;52.948;6.012;2024-01-30T11:50:02;13.60;99.90
52439;DHT22;73188;52.948;6.012;2024-01-30T12:00:31;13.90;99.90
52439;DHT22;73188;52.948;6.012;2024-01-30T12:10:58;14.00;99.90
52439;DHT22;73188;52.948;6.012;2024-01-30T12:21:24;13.70;99.90
52439;DHT22;73188;52.948;6.012;2024-01-30T12:31:53;13.50;99.90
52439;DHT22;73188;52.948;6.012;2024-01-30T12:42:20;13.60;99.90
52439;DHT22;73188;52.948;6.012;2024-01-30T12:52:49;14.00;99.90
52439;DHT22;73188;52.948;6.012;2024-01-30T13:03:15;14.10;99.90
52439;DHT22;73188;52.948;6.012;2024-01-30T13:13:40;13.90;99.90
52439;DHT22;73188;52.948;6.012;2024-01-30T13:24:06;13.70;99.90
52439;DHT22;73188;52.948;6.012;2024-01-30T13:34:32;13.50;99.90
52439;DHT22;73188;52.948;6.012;2024-01-30T13:44:58;13.40;99.90
52439;DHT22;73188;52.948;6.012;2024-01-30T13:55:24;13.30;99.90
52439;DHT22;73188;52.948;6.012;2024-01-30T14:05:50;13.30;99.90
52439;DHT22;73188;52.948;6.012;2024-01-30T14:16:16;13.40;99.90
52439;DHT22;73188;52.948;6.012;2024-01-30T14:26:42;13.60;99.90
52439;DHT22;73188;52.948;6.012;2024-01-30T14:37:08;13.80;99.90
52439;DHT22;73188;52.948;6.012;2024-01-30T14:47:34;13.90;99.90
52439;DHT22;73188;52.948;6.012;2024-01-30T14:58:01;14.00;99.90
52439;DHT22;73188;52.948;6.012;2024-01-30T15:08:27;14.10;99.90
52439;DHT22;73188;52.948;6.012;2024-01-30T15:18:53;14.30;99.90
52439;DHT22;73188;52.948;6.012;2024-01-30T15:29:19;14.30;99.90
52439;DHT22;73188;52.948;6.012;2024-01-30T15:39:48;14.40;99.90
52439;DHT22;73188;52.948;6.012;2024-01-30T15:50:13;14.40;99.90
52439;DHT22;73188;52.948;6.012;2024-01-30T16:00:39;14.40;99.90
52439;DHT22;73188;52.948;6.012;2024-01-30T16:11:05;14.20;99.90
52439;DHT22;73188;52.948;6.012;2024-01-30T16:21:34;14.20;99.90
52439;DHT22;73188;52.948;6.012;2024-01-30T16:32:00;14.40;99.90
52439;DHT22;73188;52.948;6.012;2024-01-30T16:42:26;14.30;99.90
52439;DHT22;73188;52.948;6.012;2024-01-30T16:52:51;14.30;99.90
52439;DHT22;73188;52.948;6.012;2024-01-30T17:03:17;14.30;99.90
52439;DHT22;73188;52.948;6.012;2024-01-30T17:13:43;14.10;99.90
52439;DHT22;73188;52.948;6.012;2024-01-30T17:24:09;14.10;99.90
52439;DHT22;73188;52.948;6.012;2024-01-30T17:34:36;14.10;99.90
52439;DHT22;73188;52.948;6.012;2024-01-30T17:45:03;14.00;99.90
52439;DHT22;73188;52.948;6.012;2024-01-30T17:55:29;14.00;99.90
52439;DHT22;73188;52.948;6.012;2024-01-30T18:05:55;14.00;99.90
52439;DHT22;73188;52.948;6.012;2024-01-30T18:16:21;14.00;99.90
52439;DHT22;73188;52.948;6.012;2024-01-30T18:26:47;14.00;99.90
52439;DHT22;73188;52.948;6.012;2024-01-30T18:37:13;13.80;99.90
52439;DHT22;73188;52.948;6.012;2024-01-30T18:47:39;13.70;99.90
52439;DHT22;73188;52.948;6.012;2024-01-30T18:58:05;13.80;99.90
52439;DHT22;73188;52.948;6.012;2024-01-30T19:08:31;13.70;99.90
52439;DHT22;73188;52.948;6.012;2024-01-30T19:18:57;13.70;99.90
52439;DHT22;73188;52.948;6.012;2024-01-30T19:29:23;13.70;99.90
52439;DHT22;73188;52.948;6.012;2024-01-30T19:39:49;13.50;99.90
52439;DHT22;73188;52.948;6.012;2024-01-30T19:50:15;13.30;99.90
52439;DHT22;73188;52.948;6.012;2024-01-30T20:00:40;13.20;99.90
52439;DHT22;73188;52.948;6.012;2024-01-30T20:11:16;13.10;99.90
52439;DHT22;73188;52.948;6.012;2024-01-30T20:21:42;13.10;99.90
52439;DHT22;73188;52.948;6.012;2024-01-30T20:32:12;12.90;99.90
52439;DHT22;73188;52.948;6.012;2024-01-30T20:42:39;12.70;99.90
52439;DHT22;73188;52.948;6.012;2024-01-30T20:53:04;12.60;99.90
52439;DHT22;73188;52.948;6.012;2024-01-30T21:03:32;12.40;99.90
52439;DHT22;73188;52.948;6.012;2024-01-30T21:13:58;12.30;99.90
52439;DHT22;73188;52.948;6.012;2024-01-30T21:24:24;12.20;99.90
52439;DHT22;73188;52.948;6.012;2024-01-30T21:34:50;12.00;99.90
52439;DHT22;73188;52.948;6.012;2024-01-30T21:45:17;11.90;99.90
52439;DHT22;73188;52.948;6.012;2024-01-30T21:55:45;12.20;99.90
52439;DHT22;73188;52.948;6.012;2024-01-30T22:06:11;11.90;99.90
52439;DHT22;73188;52.948;6.012;2024-01-30T22:16:39;11.90;99.90
52439;DHT22;73188;52.948;6.012;2024-01-30T22:27:04;12.00;99.90
52439;DHT22;73188;52.948;6.012;2024-01-30T22:37:30;12.10;99.90
52439;DHT22;73188;52.948;6.012;2024-01-30T22:47:56;11.90;99.90
52439;DHT22;73188;52.948;6.012;2024-01-30T22:58:22;11.90;99.90
52439;DHT22;73188;52.948;6.012;2024-01-30T23:08:48;12.00;99.90
52439;DHT22;73188;52.948;6.012;2024-01-30T23:19:14;11.70;99.90
52439;DHT22;73188;52.948;6.012;2024-01-30T23:29:41;11.30;99.90
52439;DHT22;73188;52.948;6.012;2024-01-30T23:40:11;11.20;99.90
52439;DHT22;73188;52.948;6.012;2024-01-30T23:50:39;11.20;99.90
